createdAt,value
2018-03-27T00:00:44.215Z,1009.38
2018-03-27T00:01:44.208Z,1009.41
2018-03-27T00:02:44.190Z,1009.42
2018-03-27T00:03:44.189Z,1009.39
2018-03-27T00:04:44.172Z,1009.38
2018-03-27T00:05:44.167Z,1009.44
2018-03-27T00:06:44.159Z,1009.46
2018-03-27T00:07:44.146Z,1009.49
2018-03-27T00:08:44.144Z,1009.45
2018-03-27T00:09:44.126Z,1009.44
2018-03-27T00:10:44.114Z,1009.43
2018-03-27T00:11:44.102Z,1009.37
2018-03-27T00:12:44.094Z,1009.37
2018-03-27T00:13:44.090Z,1009.37
2018-03-27T00:14:44.077Z,1009.30
2018-03-27T00:15:44.066Z,1009.35
2018-03-27T00:16:44.055Z,1009.36
2018-03-27T00:17:44.042Z,1009.36
2018-03-27T00:18:44.032Z,1009.38
2018-03-27T00:19:44.026Z,1009.39
2018-03-27T00:20:44.028Z,1009.35
2018-03-27T00:21:44.008Z,1009.36
2018-03-27T00:22:43.996Z,1009.32
2018-03-27T00:23:43.984Z,1009.31
2018-03-27T00:24:43.978Z,1009.31
2018-03-27T00:25:43.972Z,1009.33
2018-03-27T00:26:43.958Z,1009.34
2018-03-27T00:27:43.948Z,1009.36
2018-03-27T00:28:43.943Z,1009.39
2018-03-27T00:29:43.927Z,1009.35
2018-03-27T00:30:43.914Z,1009.34
2018-03-27T00:31:43.910Z,1009.37
2018-03-27T00:32:43.895Z,1009.36
2018-03-27T00:33:43.886Z,1009.37
2018-03-27T00:34:43.879Z,1009.41
2018-03-27T00:35:43.867Z,1009.39
2018-03-27T00:36:43.858Z,1009.36
2018-03-27T00:37:43.848Z,1009.35
2018-03-27T00:38:43.835Z,1009.31
2018-03-27T00:39:43.826Z,1009.29
2018-03-27T00:40:43.818Z,1009.30
2018-03-27T00:41:43.811Z,1009.30
2018-03-27T00:42:43.798Z,1009.29
2018-03-27T00:43:43.790Z,1009.33
2018-03-27T00:44:43.776Z,1009.32
2018-03-27T00:45:43.772Z,1009.32
2018-03-27T00:46:43.759Z,1009.31
2018-03-27T00:47:43.754Z,1009.32
2018-03-27T00:48:43.740Z,1009.30
2018-03-27T00:49:43.730Z,1009.33
2018-03-27T00:50:43.720Z,1009.32
2018-03-27T00:51:43.708Z,1009.34
2018-03-27T00:52:43.695Z,1009.36
2018-03-27T00:53:43.687Z,1009.33
2018-03-27T00:54:43.680Z,1009.30
2018-03-27T00:55:43.672Z,1009.33
2018-03-27T00:56:43.680Z,1009.35
2018-03-27T00:57:43.648Z,1009.32
2018-03-27T00:58:43.636Z,1009.32
2018-03-27T00:59:43.630Z,1009.35
2018-03-27T01:00:43.622Z,1009.32
2018-03-27T01:01:43.611Z,1009.32
2018-03-27T01:02:43.601Z,1009.34
2018-03-27T01:03:43.593Z,1009.35
2018-03-27T01:04:43.578Z,1009.36
2018-03-27T01:05:44.290Z,1009.34
2018-03-27T01:06:43.558Z,1009.33
2018-03-27T01:07:43.553Z,1009.33
2018-03-27T01:08:43.544Z,1009.33
2018-03-27T01:09:43.536Z,1009.34
2018-03-27T01:10:43.524Z,1009.35
2018-03-27T01:11:43.508Z,1009.32
2018-03-27T01:12:43.500Z,1009.31
2018-03-27T01:13:43.496Z,1009.30
2018-03-27T01:14:43.482Z,1009.31
2018-03-27T01:15:43.478Z,1009.25
2018-03-27T01:16:43.464Z,1009.21
2018-03-27T01:17:44.293Z,1009.23
2018-03-27T01:18:43.440Z,1009.27
2018-03-27T01:19:43.438Z,1009.24
2018-03-27T01:20:43.425Z,1009.22
2018-03-27T01:21:43.419Z,1009.22
2018-03-27T01:22:43.405Z,1009.23
2018-03-27T01:23:43.394Z,1009.20
2018-03-27T01:24:43.382Z,1009.17
2018-03-27T01:25:43.377Z,1009.13
2018-03-27T01:26:43.369Z,1009.11
2018-03-27T01:27:43.359Z,1009.16
2018-03-27T01:28:43.347Z,1009.09
2018-03-27T01:29:43.340Z,1009.11
2018-03-27T01:30:43.325Z,1009.08
2018-03-27T01:31:43.314Z,1009.07
2018-03-27T01:32:43.304Z,1009.03
2018-03-27T01:33:43.299Z,1009.04
2018-03-27T01:34:43.287Z,1009.02
2018-03-27T01:35:43.279Z,1009.02
2018-03-27T01:36:43.265Z,1009.01
2018-03-27T01:37:43.260Z,1009.03
2018-03-27T01:38:43.246Z,1009.01
2018-03-27T01:39:43.249Z,1008.98
2018-03-27T01:40:43.232Z,1008.99
2018-03-27T01:41:43.224Z,1008.97
2018-03-27T01:42:43.212Z,1008.95
2018-03-27T01:43:43.200Z,1008.94
2018-03-27T01:44:43.196Z,1008.95
2018-03-27T01:45:43.181Z,1008.94
2018-03-27T01:46:43.173Z,1008.90
2018-03-27T01:47:43.166Z,1008.91
2018-03-27T01:48:43.153Z,1008.86
2018-03-27T01:49:43.145Z,1008.84
2018-03-27T01:50:43.139Z,1008.85
2018-03-27T01:51:43.132Z,1008.81
2018-03-27T01:52:43.120Z,1008.79
2018-03-27T01:53:43.117Z,1008.79
2018-03-27T01:54:43.103Z,1008.78
2018-03-27T01:55:43.107Z,1008.75
2018-03-27T01:56:43.093Z,1008.75
2018-03-27T01:57:43.074Z,1008.75
2018-03-27T01:58:43.066Z,1008.80
2018-03-27T01:59:43.064Z,1008.78
2018-03-27T02:00:43.059Z,1008.76
2018-03-27T02:01:43.038Z,1008.79
2018-03-27T02:02:43.024Z,1008.80
2018-03-27T02:03:43.029Z,1008.75
2018-03-27T02:04:43.009Z,1008.77
2018-03-27T02:05:43.004Z,1008.78
2018-03-27T02:06:42.995Z,1008.73
2018-03-27T02:07:42.974Z,1008.71
2018-03-27T02:08:42.977Z,1008.72
2018-03-27T02:09:42.966Z,1008.70
2018-03-27T02:10:42.956Z,1008.70
2018-03-27T02:11:42.937Z,1008.71
2018-03-27T02:12:42.925Z,1008.71
2018-03-27T02:13:42.929Z,1008.73
2018-03-27T02:14:42.914Z,1008.76
2018-03-27T02:15:42.898Z,1008.75
2018-03-27T02:16:42.889Z,1008.77
2018-03-27T02:17:42.879Z,1008.76
2018-03-27T02:18:42.877Z,1008.72
2018-03-27T02:19:42.863Z,1008.71
2018-03-27T02:20:42.852Z,1008.70
2018-03-27T02:21:42.846Z,1008.71
2018-03-27T02:22:42.845Z,1008.68
2018-03-27T02:23:42.818Z,1008.70
2018-03-27T02:24:42.813Z,1008.71
2018-03-27T02:25:42.807Z,1008.73
2018-03-27T02:26:42.789Z,1008.71
2018-03-27T02:27:42.790Z,1008.70
2018-03-27T02:28:42.768Z,1008.70
2018-03-27T02:29:42.769Z,1008.69
2018-03-27T02:30:42.759Z,1008.73
2018-03-27T02:31:42.741Z,1008.70
2018-03-27T02:32:42.733Z,1008.69
2018-03-27T02:33:42.717Z,1008.70
2018-03-27T02:34:42.709Z,1008.70
2018-03-27T02:35:42.697Z,1008.68
2018-03-27T02:36:42.685Z,1008.65
2018-03-27T02:37:42.677Z,1008.68
2018-03-27T02:38:42.667Z,1008.66
2018-03-27T02:39:42.659Z,1008.67
2018-03-27T02:40:42.660Z,1008.65
2018-03-27T02:41:42.641Z,1008.64
2018-03-27T02:42:42.629Z,1008.65
2018-03-27T02:43:42.619Z,1008.64
2018-03-27T02:44:42.612Z,1008.64
2018-03-27T02:45:42.596Z,1008.59
2018-03-27T02:46:42.587Z,1008.60
2018-03-27T02:47:42.581Z,1008.60
2018-03-27T02:48:42.579Z,1008.62
2018-03-27T02:49:42.556Z,1008.62
2018-03-27T02:50:42.560Z,1008.62
2018-03-27T02:51:42.600Z,1008.56
2018-03-27T02:52:42.544Z,1008.56
2018-03-27T02:53:42.517Z,1008.54
2018-03-27T02:54:42.510Z,1008.56
2018-03-27T02:55:42.499Z,1008.54
2018-03-27T02:56:42.490Z,1008.52
2018-03-27T02:57:42.480Z,1008.53
2018-03-27T02:58:42.479Z,1008.51
2018-03-27T02:59:42.471Z,1008.50
2018-03-27T03:00:42.448Z,1008.51
2018-03-27T03:01:42.443Z,1008.44
2018-03-27T03:02:42.439Z,1008.46
2018-03-27T03:03:42.421Z,1008.41
2018-03-27T03:04:42.420Z,1008.41
2018-03-27T03:05:42.405Z,1008.43
2018-03-27T03:06:42.389Z,1008.44
2018-03-27T03:07:42.396Z,1008.44
2018-03-27T03:08:42.383Z,1008.47
2018-03-27T03:09:42.364Z,1008.43
2018-03-27T03:10:42.349Z,1008.44
2018-03-27T03:11:42.338Z,1008.37
2018-03-27T03:12:42.339Z,1008.39
2018-03-27T03:13:42.318Z,1008.41
2018-03-27T03:14:42.307Z,1008.41
2018-03-27T03:15:42.298Z,1008.40
2018-03-27T03:16:42.291Z,1008.41
2018-03-27T03:17:42.282Z,1008.40
2018-03-27T03:18:42.265Z,1008.39
2018-03-27T03:19:42.269Z,1008.42
2018-03-27T03:20:42.246Z,1008.39
2018-03-27T03:21:42.237Z,1008.39
2018-03-27T03:22:42.227Z,1008.39
2018-03-27T03:23:42.221Z,1008.40
2018-03-27T03:24:42.218Z,1008.42
2018-03-27T03:25:42.196Z,1008.44
2018-03-27T03:26:42.196Z,1008.43
2018-03-27T03:27:42.192Z,1008.46
2018-03-27T03:28:42.168Z,1008.49
2018-03-27T03:29:42.159Z,1008.45
2018-03-27T03:30:42.146Z,1008.46
2018-03-27T03:31:42.148Z,1008.45
2018-03-27T03:32:42.125Z,1008.46
2018-03-27T03:33:42.116Z,1008.43
2018-03-27T03:34:42.106Z,1008.46
2018-03-27T03:35:42.109Z,1008.44
2018-03-27T03:36:42.092Z,1008.45
2018-03-27T03:37:42.077Z,1008.47
2018-03-27T03:38:42.067Z,1008.51
2018-03-27T03:39:42.066Z,1008.51
2018-03-27T03:40:42.058Z,1008.50
2018-03-27T03:41:42.036Z,1008.50
2018-03-27T03:42:42.032Z,1008.52
2018-03-27T03:43:42.025Z,1008.51
2018-03-27T03:44:42.015Z,1008.48
2018-03-27T03:45:42.006Z,1008.46
2018-03-27T03:46:42.000Z,1008.48
2018-03-27T03:47:41.984Z,1008.47
2018-03-27T03:48:41.965Z,1008.51
2018-03-27T03:49:41.951Z,1008.46
2018-03-27T03:50:41.951Z,1008.44
2018-03-27T03:51:41.950Z,1008.42
2018-03-27T03:52:41.929Z,1008.42
2018-03-27T03:53:41.912Z,1008.41
2018-03-27T03:54:41.902Z,1008.42
2018-03-27T03:55:41.901Z,1008.40
2018-03-27T03:56:41.892Z,1008.40
2018-03-27T03:57:41.868Z,1008.35
2018-03-27T03:58:41.861Z,1008.35
2018-03-27T03:59:41.859Z,1008.36
2018-03-27T04:00:41.839Z,1008.32
2018-03-27T04:01:41.839Z,1008.36
2018-03-27T04:02:41.828Z,1008.35
2018-03-27T04:03:41.813Z,1008.37
2018-03-27T04:04:41.816Z,1008.32
2018-03-27T04:05:41.786Z,1008.32
2018-03-27T04:06:41.776Z,1008.31
2018-03-27T04:07:41.783Z,1008.30
2018-03-27T04:08:41.765Z,1008.32
2018-03-27T04:09:41.746Z,1008.30
2018-03-27T04:10:41.732Z,1008.30
2018-03-27T04:11:41.725Z,1008.27
2018-03-27T04:12:41.725Z,1008.27
2018-03-27T04:13:41.730Z,1008.26
2018-03-27T04:14:41.692Z,1008.27
2018-03-27T04:15:41.693Z,1008.24
2018-03-27T04:16:41.693Z,1008.25
2018-03-27T04:17:41.665Z,1008.27
2018-03-27T04:18:41.665Z,1008.29
2018-03-27T04:19:41.637Z,1008.30
2018-03-27T04:20:41.643Z,1008.26
2018-03-27T04:21:41.631Z,1008.28
2018-03-27T04:22:41.616Z,1008.26
2018-03-27T04:23:41.595Z,1008.26
2018-03-27T04:24:41.586Z,1008.30
2018-03-27T04:25:41.575Z,1008.28
2018-03-27T04:26:41.577Z,1008.27
2018-03-27T04:27:41.552Z,1008.28
2018-03-27T04:28:41.547Z,1008.25
2018-03-27T04:29:41.532Z,1008.23
2018-03-27T04:30:41.523Z,1008.28
2018-03-27T04:31:41.512Z,1008.25
2018-03-27T04:32:41.512Z,1008.22
2018-03-27T04:33:41.491Z,1008.26
2018-03-27T04:34:41.480Z,1008.21
2018-03-27T04:35:41.480Z,1008.21
2018-03-27T04:36:41.458Z,1008.15
2018-03-27T04:37:41.448Z,1008.16
2018-03-27T04:38:41.448Z,1008.15
2018-03-27T04:39:41.438Z,1008.16
2018-03-27T04:40:41.430Z,1008.13
2018-03-27T04:41:41.405Z,1008.11
2018-03-27T04:42:41.409Z,1008.10
2018-03-27T04:43:41.381Z,1008.10
2018-03-27T04:44:41.384Z,1008.10
2018-03-27T04:45:41.364Z,1008.10
2018-03-27T04:46:41.362Z,1008.13
2018-03-27T04:47:41.353Z,1008.08
2018-03-27T04:48:41.332Z,1008.07
2018-03-27T04:49:41.320Z,1008.05
2018-03-27T04:50:41.306Z,1008.10
2018-03-27T04:51:41.329Z,1008.03
2018-03-27T04:52:41.291Z,1008.06
2018-03-27T04:53:41.288Z,1008.06
2018-03-27T04:54:41.276Z,1008.06
2018-03-27T04:55:41.266Z,1008.08
2018-03-27T04:56:41.258Z,1008.08
2018-03-27T04:57:41.244Z,1008.12
2018-03-27T04:58:41.236Z,1008.13
2018-03-27T04:59:41.210Z,1008.17
2018-03-27T05:00:41.199Z,1008.16
2018-03-27T05:01:41.199Z,1008.18
2018-03-27T05:02:41.181Z,1008.18
2018-03-27T05:03:41.167Z,1008.20
2018-03-27T05:04:41.169Z,1008.18
2018-03-27T05:05:41.157Z,1008.21
2018-03-27T05:06:41.147Z,1008.17
2018-03-27T05:07:41.128Z,1008.17
2018-03-27T05:08:41.115Z,1008.14
2018-03-27T05:09:41.105Z,1008.14
2018-03-27T05:10:41.089Z,1008.15
2018-03-27T05:11:41.081Z,1008.18
2018-03-27T05:12:41.072Z,1008.13
2018-03-27T05:13:41.061Z,1008.12
2018-03-27T05:14:41.060Z,1008.10
2018-03-27T05:15:41.044Z,1008.10
2018-03-27T05:16:41.028Z,1008.13
2018-03-27T05:17:41.029Z,1008.14
2018-03-27T05:18:41.005Z,1008.13
2018-03-27T05:19:40.993Z,1008.15
2018-03-27T05:20:40.985Z,1008.14
2018-03-27T05:21:40.979Z,1008.15
2018-03-27T05:22:40.961Z,1008.13
2018-03-27T05:23:40.951Z,1008.12
2018-03-27T05:24:40.944Z,1008.13
2018-03-27T05:25:40.928Z,1008.14
2018-03-27T05:26:40.918Z,1008.13
2018-03-27T05:27:40.921Z,1008.14
2018-03-27T05:28:40.906Z,1008.15
2018-03-27T05:29:40.888Z,1008.14
2018-03-27T05:30:40.887Z,1008.18
2018-03-27T05:31:40.868Z,1008.16
2018-03-27T05:32:40.858Z,1008.16
2018-03-27T05:33:40.844Z,1008.17
2018-03-27T05:34:40.841Z,1008.14
2018-03-27T05:35:40.818Z,1008.15
2018-03-27T05:36:40.809Z,1008.11
2018-03-27T05:37:40.799Z,1008.12
2018-03-27T05:38:40.837Z,1008.16
2018-03-27T05:39:40.773Z,1008.18
2018-03-27T05:40:40.765Z,1008.18
2018-03-27T05:41:40.756Z,1008.21
2018-03-27T05:42:40.754Z,1008.19
2018-03-27T05:43:40.732Z,1008.19
2018-03-27T05:44:40.737Z,1008.18
2018-03-27T05:45:40.712Z,1008.20
2018-03-27T05:46:40.751Z,1008.20
2018-03-27T05:47:40.699Z,1008.19
2018-03-27T05:48:40.676Z,1008.17
2018-03-27T05:49:40.668Z,1008.21
2018-03-27T05:50:40.664Z,1008.18
2018-03-27T05:51:40.656Z,1008.18
2018-03-27T05:52:40.651Z,1008.21
2018-03-27T05:53:40.625Z,1008.16
2018-03-27T05:54:40.610Z,1008.15
2018-03-27T05:55:40.599Z,1008.08
2018-03-27T05:56:40.599Z,1008.07
2018-03-27T05:57:40.594Z,1008.04
2018-03-27T05:58:40.568Z,1008.04
2018-03-27T05:59:40.559Z,1008.05
2018-03-27T06:00:40.558Z,1008.03
2018-03-27T06:01:40.549Z,1008.05
2018-03-27T06:02:40.523Z,1008.04
2018-03-27T06:03:40.513Z,1008.01
2018-03-27T06:04:40.502Z,1008.02
2018-03-27T06:05:40.494Z,1008.03
2018-03-27T06:06:40.483Z,1008.04
2018-03-27T06:07:40.469Z,1007.99
2018-03-27T06:08:40.468Z,1008.04
2018-03-27T06:09:40.459Z,1008.00
2018-03-27T06:10:40.437Z,1008.05
2018-03-27T06:11:40.423Z,1008.00
2018-03-27T06:12:40.415Z,1008.01
2018-03-27T06:13:40.472Z,1008.02
2018-03-27T06:14:40.393Z,1008.00
2018-03-27T06:15:40.383Z,1007.98
2018-03-27T06:16:40.369Z,1007.97
2018-03-27T06:17:40.360Z,1007.93
2018-03-27T06:18:40.405Z,1007.92
2018-03-27T06:19:40.350Z,1007.95
2018-03-27T06:20:40.327Z,1007.95
2018-03-27T06:21:40.329Z,1007.95
2018-03-27T06:22:40.317Z,1008.00
2018-03-27T06:23:40.306Z,1007.97
2018-03-27T06:24:40.332Z,1007.99
2018-03-27T06:25:40.275Z,1008.02
2018-03-27T06:26:40.275Z,1007.98
2018-03-27T06:27:40.276Z,1008.00
2018-03-27T06:28:40.240Z,1008.01
2018-03-27T06:29:40.233Z,1007.97
2018-03-27T06:30:40.222Z,1007.98
2018-03-27T06:31:40.208Z,1008.00
2018-03-27T06:32:40.203Z,1008.02
2018-03-27T06:33:40.189Z,1008.02
2018-03-27T06:34:40.192Z,1008.03
2018-03-27T06:35:40.180Z,1007.99
2018-03-27T06:36:40.157Z,1008.00
2018-03-27T06:37:40.159Z,1008.01
2018-03-27T06:38:40.137Z,1008.00
2018-03-27T06:39:40.141Z,1007.98
2018-03-27T06:40:40.130Z,1007.99
2018-03-27T06:41:40.118Z,1007.98
2018-03-27T06:42:40.096Z,1007.96
2018-03-27T06:43:40.087Z,1007.99
2018-03-27T06:44:40.075Z,1007.97
2018-03-27T06:45:40.067Z,1007.96
2018-03-27T06:46:40.054Z,1007.95
2018-03-27T06:47:40.069Z,1008.00
2018-03-27T06:48:40.037Z,1008.00
2018-03-27T06:49:40.024Z,1007.98
2018-03-27T06:50:40.018Z,1008.00
2018-03-27T06:51:40.009Z,1007.98
2018-03-27T06:52:39.994Z,1008.02
2018-03-27T06:53:39.984Z,1008.00
2018-03-27T06:54:39.974Z,1008.00
2018-03-27T06:55:39.963Z,1008.05
2018-03-27T06:56:39.965Z,1008.02
2018-03-27T06:57:39.943Z,1008.05
2018-03-27T06:58:39.945Z,1008.04
2018-03-27T06:59:39.922Z,1008.00
2018-03-27T07:00:39.926Z,1008.04
2018-03-27T07:01:39.910Z,1008.06
2018-03-27T07:02:39.894Z,1008.01
2018-03-27T07:03:39.909Z,1007.99
2018-03-27T07:04:39.877Z,1007.99
2018-03-27T07:05:39.886Z,1007.97
2018-03-27T07:06:39.903Z,1007.99
2018-03-27T07:07:39.858Z,1007.97
2018-03-27T07:08:39.845Z,1007.98
2018-03-27T07:09:39.844Z,1007.99
2018-03-27T07:10:39.903Z,1007.97
2018-03-27T07:11:39.819Z,1007.94
2018-03-27T07:12:39.844Z,1007.94
2018-03-27T07:13:39.790Z,1007.90
2018-03-27T07:14:39.803Z,1007.92
2018-03-27T07:15:39.778Z,1007.92
2018-03-27T07:16:39.771Z,1007.90
2018-03-27T07:17:39.750Z,1007.93
2018-03-27T07:18:39.753Z,1007.90
2018-03-27T07:19:39.743Z,1007.88
2018-03-27T07:20:39.736Z,1007.89
2018-03-27T07:21:39.726Z,1007.84
2018-03-27T07:22:39.710Z,1007.84
2018-03-27T07:23:39.696Z,1007.85
2018-03-27T07:24:39.698Z,1007.88
2018-03-27T07:25:39.680Z,1007.88
2018-03-27T07:26:39.680Z,1007.86
2018-03-27T07:27:39.657Z,1007.90
2018-03-27T07:28:39.653Z,1007.87
2018-03-27T07:29:39.653Z,1007.88
2018-03-27T07:30:39.645Z,1007.86
2018-03-27T07:31:39.623Z,1007.86
2018-03-27T07:32:39.617Z,1007.86
2018-03-27T07:33:39.606Z,1007.87
2018-03-27T07:34:39.595Z,1007.85
2018-03-27T07:35:39.590Z,1007.90
2018-03-27T07:36:39.577Z,1007.92
2018-03-27T07:37:39.580Z,1007.91
2018-03-27T07:38:39.572Z,1007.88
2018-03-27T07:39:39.562Z,1007.85
2018-03-27T07:40:39.548Z,1007.87
2018-03-27T07:41:39.536Z,1007.87
2018-03-27T07:42:39.524Z,1007.84
2018-03-27T07:43:39.515Z,1007.89
2018-03-27T07:44:39.508Z,1007.86
2018-03-27T07:45:39.509Z,1007.87
2018-03-27T07:46:39.487Z,1007.88
2018-03-27T07:47:39.491Z,1007.90
2018-03-27T07:48:39.470Z,1007.93
2018-03-27T07:49:39.461Z,1007.86
2018-03-27T07:50:39.464Z,1007.84
2018-03-27T07:51:39.444Z,1007.87
2018-03-27T07:52:39.446Z,1007.85
2018-03-27T07:53:39.442Z,1007.82
2018-03-27T07:54:39.430Z,1007.78
2018-03-27T07:55:39.406Z,1007.82
2018-03-27T07:56:39.398Z,1007.84
2018-03-27T07:57:39.394Z,1007.81
2018-03-27T07:58:39.394Z,1007.78
2018-03-27T07:59:39.388Z,1007.76
2018-03-27T08:00:39.364Z,1007.76
2018-03-27T08:01:39.360Z,1007.80
2018-03-27T08:02:39.358Z,1007.71
2018-03-27T08:03:39.351Z,1007.72
2018-03-27T08:04:39.332Z,1007.72
2018-03-27T08:05:39.324Z,1007.71
2018-03-27T08:06:39.313Z,1007.70
2018-03-27T08:07:39.305Z,1007.68
2018-03-27T08:08:39.297Z,1007.63
2018-03-27T08:09:39.297Z,1007.61
2018-03-27T08:10:39.278Z,1007.60
2018-03-27T08:11:39.280Z,1007.62
2018-03-27T08:12:39.270Z,1007.61
2018-03-27T08:13:39.254Z,1007.60
2018-03-27T08:14:39.261Z,1007.56
2018-03-27T08:15:39.250Z,1007.58
2018-03-27T08:16:39.234Z,1007.59
2018-03-27T08:17:39.241Z,1007.57
2018-03-27T08:18:39.212Z,1007.56
2018-03-27T08:19:39.207Z,1007.55
2018-03-27T08:20:39.202Z,1007.57
2018-03-27T08:21:39.204Z,1007.55
2018-03-27T08:22:39.188Z,1007.55
2018-03-27T08:23:39.175Z,1007.55
2018-03-27T08:24:39.167Z,1007.52
2018-03-27T08:25:39.157Z,1007.53
2018-03-27T08:26:39.154Z,1007.49
2018-03-27T08:27:39.157Z,1007.47
2018-03-27T08:28:39.138Z,1007.45
2018-03-27T08:29:39.160Z,1007.44
2018-03-27T08:30:39.134Z,1007.45
2018-03-27T08:31:39.112Z,1007.48
2018-03-27T08:32:39.104Z,1007.46
2018-03-27T08:33:39.108Z,1007.44
2018-03-27T08:34:39.098Z,1007.41
2018-03-27T08:35:39.080Z,1007.44
2018-03-27T08:36:39.073Z,1007.39
2018-03-27T08:37:39.064Z,1007.38
2018-03-27T08:38:39.054Z,1007.39
2018-03-27T08:39:39.047Z,1007.33
2018-03-27T08:40:39.052Z,1007.30
2018-03-27T08:41:39.031Z,1007.29
2018-03-27T08:42:39.039Z,1007.28
2018-03-27T08:43:39.011Z,1007.26
2018-03-27T08:44:39.017Z,1007.28
2018-03-27T08:45:39.008Z,1007.24
2018-03-27T08:46:38.990Z,1007.27
2018-03-27T08:47:38.979Z,1007.29
2018-03-27T08:48:39.041Z,1007.26
2018-03-27T08:49:38.980Z,1007.27
2018-03-27T08:50:38.956Z,1007.22
2018-03-27T08:51:38.951Z,1007.20
2018-03-27T08:52:38.950Z,1007.22
2018-03-27T08:53:38.944Z,1007.19
2018-03-27T08:54:38.935Z,1007.21
2018-03-27T08:55:38.928Z,1007.17
2018-03-27T08:56:38.905Z,1007.12
2018-03-27T08:57:38.908Z,1007.15
2018-03-27T08:58:38.901Z,1007.10
2018-03-27T08:59:38.884Z,1007.10
2018-03-27T09:00:38.916Z,1007.13
2018-03-27T09:01:38.883Z,1007.12
2018-03-27T09:02:38.858Z,1007.12
2018-03-27T09:03:38.859Z,1007.13
2018-03-27T09:04:38.850Z,1007.17
2018-03-27T09:05:38.840Z,1007.18
2018-03-27T09:06:38.842Z,1007.19
2018-03-27T09:07:38.823Z,1007.13
2018-03-27T09:08:38.818Z,1007.12
2018-03-27T09:09:38.820Z,1007.12
2018-03-27T09:10:38.804Z,1007.14
2018-03-27T09:11:38.809Z,1007.15
2018-03-27T09:12:38.808Z,1007.13
2018-03-27T09:13:38.789Z,1007.09
2018-03-27T09:14:38.793Z,1007.11
2018-03-27T09:15:38.776Z,1007.08
2018-03-27T09:16:38.778Z,1007.06
2018-03-27T09:17:38.770Z,1007.03
2018-03-27T09:18:38.777Z,1007.03
2018-03-27T09:19:38.773Z,1007.04
2018-03-27T09:20:38.770Z,1007.02
2018-03-27T09:21:38.752Z,1007.07
2018-03-27T09:22:38.761Z,1007.02
2018-03-27T09:23:38.754Z,1007.04
2018-03-27T09:24:38.757Z,1007.07
2018-03-27T09:25:38.743Z,1007.06
2018-03-27T09:26:38.744Z,1007.01
2018-03-27T09:27:38.755Z,1007.01
2018-03-27T09:28:38.807Z,1007.00
2018-03-27T09:29:38.735Z,1007.00
2018-03-27T09:30:38.743Z,1006.99
2018-03-27T09:31:38.733Z,1006.98
2018-03-27T09:32:38.733Z,1006.92
2018-03-27T09:33:38.746Z,1006.93
2018-03-27T09:34:38.741Z,1006.90
2018-03-27T09:35:38.727Z,1006.88
2018-03-27T09:36:38.729Z,1006.86
2018-03-27T09:37:38.728Z,1006.90
2018-03-27T09:38:38.738Z,1006.85
2018-03-27T09:39:38.738Z,1006.84
2018-03-27T09:40:38.726Z,1006.84
2018-03-27T09:41:38.729Z,1006.80
2018-03-27T09:42:38.726Z,1006.85
2018-03-27T09:43:38.734Z,1006.87
2018-03-27T09:44:38.736Z,1006.88
2018-03-27T09:45:38.736Z,1006.78
2018-03-27T09:46:38.738Z,1006.84
2018-03-27T09:47:38.735Z,1006.81
2018-03-27T09:48:38.738Z,1006.82
2018-03-27T09:49:38.744Z,1006.85
2018-03-27T09:50:38.725Z,1006.81
2018-03-27T09:51:38.727Z,1006.81
2018-03-27T09:52:38.739Z,1006.75
2018-03-27T09:53:38.726Z,1006.78
2018-03-27T09:54:38.725Z,1006.80
2018-03-27T09:55:38.727Z,1006.78
2018-03-27T09:56:38.726Z,1006.80
2018-03-27T09:57:38.731Z,1006.76
2018-03-27T09:58:38.740Z,1006.73
2018-03-27T09:59:38.738Z,1006.72
2018-03-27T10:00:38.728Z,1006.67
2018-03-27T10:01:38.733Z,1006.64
2018-03-27T10:02:38.729Z,1006.65
2018-03-27T10:03:38.729Z,1006.62
2018-03-27T10:04:38.729Z,1006.66
2018-03-27T10:05:38.735Z,1006.64
2018-03-27T10:06:38.785Z,1006.60
2018-03-27T10:07:38.733Z,1006.58
2018-03-27T10:08:38.732Z,1006.56
2018-03-27T10:09:38.744Z,1006.56
2018-03-27T10:10:38.732Z,1006.54
2018-03-27T10:11:38.746Z,1006.61
2018-03-27T10:12:38.743Z,1006.52
2018-03-27T10:13:38.736Z,1006.53
2018-03-27T10:14:38.749Z,1006.52
2018-03-27T10:15:38.755Z,1006.52
2018-03-27T10:16:38.746Z,1006.47
2018-03-27T10:17:38.757Z,1006.46
2018-03-27T10:18:38.753Z,1006.45
2018-03-27T10:19:38.760Z,1006.46
2018-03-27T10:20:38.759Z,1006.44
2018-03-27T10:21:38.749Z,1006.47
2018-03-27T10:22:38.748Z,1006.43
2018-03-27T10:23:38.755Z,1006.39
2018-03-27T10:24:38.764Z,1006.38
2018-03-27T10:25:38.755Z,1006.37
2018-03-27T10:26:38.767Z,1006.33
2018-03-27T10:27:38.759Z,1006.33
2018-03-27T10:28:38.758Z,1006.23
2018-03-27T10:29:38.763Z,1006.30
2018-03-27T10:30:38.778Z,1006.26
2018-03-27T10:31:38.764Z,1006.25
2018-03-27T10:32:38.770Z,1006.29
2018-03-27T10:33:38.784Z,1006.22
2018-03-27T10:34:38.771Z,1006.22
2018-03-27T10:35:38.785Z,1006.17
2018-03-27T10:36:38.805Z,1006.20
2018-03-27T10:37:38.784Z,1006.15
2018-03-27T10:38:38.782Z,1006.13
2018-03-27T10:39:38.785Z,1006.17
2018-03-27T10:40:38.788Z,1006.07
2018-03-27T10:41:38.789Z,1006.12
2018-03-27T10:42:38.793Z,1006.11
2018-03-27T10:43:38.805Z,1006.08
2018-03-27T10:44:38.794Z,1006.04
2018-03-27T10:45:38.802Z,1006.01
2018-03-27T10:46:39.116Z,1006.03
2018-03-27T10:47:38.819Z,1006.00
2018-03-27T10:48:38.806Z,1005.92
2018-03-27T10:49:38.809Z,1005.95
2018-03-27T10:50:38.823Z,1005.95
2018-03-27T10:51:38.824Z,1005.86
2018-03-27T10:52:38.814Z,1005.82
2018-03-27T10:53:38.828Z,1005.82
2018-03-27T10:54:38.822Z,1005.78
2018-03-27T10:55:38.819Z,1005.77
2018-03-27T10:56:38.820Z,1005.78
2018-03-27T10:57:38.821Z,1005.72
2018-03-27T10:58:38.828Z,1005.68
2018-03-27T10:59:38.820Z,1005.66
2018-03-27T11:00:38.829Z,1005.66
2018-03-27T11:01:38.835Z,1005.67
2018-03-27T11:02:38.827Z,1005.69
2018-03-27T11:03:38.829Z,1005.67
2018-03-27T11:04:38.814Z,1005.66
2018-03-27T11:05:38.824Z,1005.62
2018-03-27T11:06:38.810Z,1005.55
2018-03-27T11:07:38.808Z,1005.58
2018-03-27T11:08:38.809Z,1005.56
2018-03-27T11:09:38.821Z,1005.63
2018-03-27T11:10:38.805Z,1005.56
2018-03-27T11:11:38.808Z,1005.55
2018-03-27T11:12:38.813Z,1005.62
2018-03-27T11:13:38.799Z,1005.51
2018-03-27T11:14:38.793Z,1005.53
2018-03-27T11:15:38.791Z,1005.54
2018-03-27T11:16:38.793Z,1005.45
2018-03-27T11:17:38.790Z,1005.42
2018-03-27T11:18:38.798Z,1005.48
2018-03-27T11:19:38.807Z,1005.45
2018-03-27T11:20:38.785Z,1005.42
2018-03-27T11:21:38.783Z,1005.45
2018-03-27T11:22:38.780Z,1005.38
2018-03-27T11:23:38.775Z,1005.30
2018-03-27T11:24:38.788Z,1005.40
2018-03-27T11:25:38.785Z,1005.36
2018-03-27T11:26:38.772Z,1005.40
2018-03-27T11:27:38.788Z,1005.32
2018-03-27T11:28:38.769Z,1005.30
2018-03-27T11:29:38.767Z,1005.22
2018-03-27T11:30:38.759Z,1005.27
2018-03-27T11:31:38.759Z,1005.16
2018-03-27T11:32:38.767Z,1005.16
2018-03-27T11:33:38.757Z,1005.12
2018-03-27T11:34:38.755Z,1005.16
2018-03-27T11:35:38.758Z,1005.10
2018-03-27T11:36:38.746Z,1005.04
2018-03-27T11:37:38.753Z,1005.03
2018-03-27T11:38:38.737Z,1005.02
2018-03-27T11:39:38.734Z,1005.02
2018-03-27T11:40:38.732Z,1005.04
2018-03-27T11:41:38.730Z,1004.96
2018-03-27T11:42:38.725Z,1004.94
2018-03-27T11:43:38.738Z,1004.99
2018-03-27T11:44:38.721Z,1004.96
2018-03-27T11:45:38.728Z,1004.94
2018-03-27T11:46:38.724Z,1004.96
2018-03-27T11:47:38.721Z,1004.95
2018-03-27T11:48:38.709Z,1004.96
2018-03-27T11:49:38.716Z,1004.88
2018-03-27T11:50:38.705Z,1004.97
2018-03-27T11:51:38.699Z,1004.85
2018-03-27T11:52:38.710Z,1004.77
2018-03-27T11:53:38.694Z,1004.77
2018-03-27T11:54:38.726Z,1004.78
2018-03-27T11:55:38.706Z,1004.70
2018-03-27T11:56:38.700Z,1004.70
2018-03-27T11:57:38.691Z,1004.71
2018-03-27T11:58:38.685Z,1004.68
2018-03-27T11:59:38.696Z,1004.64
2018-03-27T12:00:38.681Z,1004.73
2018-03-27T12:01:38.690Z,1004.59
2018-03-27T12:02:38.679Z,1004.64
2018-03-27T12:03:38.678Z,1004.72
2018-03-27T12:04:38.689Z,1004.66
2018-03-27T12:05:38.678Z,1004.61